sensor_id;sensor_type;location;lat;lon;timestamp;pressure;altitude;pressure_sealevel;temperature;humidity
56174;BME280;42058;52.308;20.924;2022-08-19T00:00:38;100294.00;;;23.31;100.00
56174;BME280;42058;52.308;20.924;2022-08-19T00:03:06;100287.06;;;23.28;100.00
56174;BME280;42058;52.308;20.924;2022-08-19T00:05:33;100293.39;;;23.27;100.00
56174;BME280;42058;52.308;20.924;2022-08-19T00:07:59;100299.52;;;23.29;100.00
56174;BME280;42058;52.308;20.924;2022-08-19T00:10:26;100283.03;;;23.28;100.00
56174;BME280;42058;52.308;20.924;2022-08-19T00:12:52;100280.47;;;23.27;100.00
56174;BME280;42058;52.308;20.924;2022-08-19T00:15:20;100288.18;;;23.26;100.00
56174;BME280;42058;52.308;20.924;2022-08-19T00:17:47;100282.44;;;23.25;100.00
56174;BME280;42058;52.308;20.924;2022-08-19T00:20:16;100284.27;;;23.24;100.00
56174;BME280;42058;52.308;20.924;2022-08-19T00:22:46;100293.91;;;23.21;100.00
56174;BME280;42058;52.308;20.924;2022-08-19T00:25:14;100287.32;;;23.19;100.00
56174;BME280;42058;52.308;20.924;2022-08-19T00:27:41;100281.61;;;23.18;100.00
56174;BME280;42058;52.308;20.924;2022-08-19T00:30:08;100285.63;;;23.18;100.00
56174;BME280;42058;52.308;20.924;2022-08-19T00:32:37;100292.34;;;23.18;100.00
56174;BME280;42058;52.308;20.924;2022-08-19T00:35:04;100293.80;;;23.17;100.00
56174;BME280;42058;52.308;20.924;2022-08-19T00:37:31;100289.52;;;23.14;100.00
56174;BME280;42058;52.308;20.924;2022-08-19T00:39:58;100291.13;;;23.11;100.00
56174;BME280;42058;52.308;20.924;2022-08-19T00:42:24;100294.06;;;23.08;100.00
56174;BME280;42058;52.308;20.924;2022-08-19T00:44:52;100298.32;;;23.05;100.00
56174;BME280;42058;52.308;20.924;2022-08-19T00:47:19;100295.88;;;23.02;100.00
56174;BME280;42058;52.308;20.924;2022-08-19T00:49:48;100293.81;;;23.00;100.00
56174;BME280;42058;52.308;20.924;2022-08-19T00:52:35;100294.28;;;22.99;100.00
56174;BME280;42058;52.308;20.924;2022-08-19T00:55:06;100293.67;;;22.96;100.00
56174;BME280;42058;52.308;20.924;2022-08-19T00:57:38;100289.91;;;22.93;100.00
56174;BME280;42058;52.308;20.924;2022-08-19T01:00:10;100283.45;;;22.90;100.00
56174;BME280;42058;52.308;20.924;2022-08-19T01:02:40;100284.18;;;22.86;100.00
56174;BME280;42058;52.308;20.924;2022-08-19T01:05:14;100289.31;;;22.83;100.00
56174;BME280;42058;52.308;20.924;2022-08-19T01:07:40;100306.49;;;22.81;100.00
56174;BME280;42058;52.308;20.924;2022-08-19T01:10:11;100302.23;;;22.78;100.00
56174;BME280;42058;52.308;20.924;2022-08-19T01:12:39;100302.23;;;22.78;100.00
56174;BME280;42058;52.308;20.924;2022-08-19T01:15:08;100300.64;;;22.76;100.00
56174;BME280;42058;52.308;20.924;2022-08-19T01:17:38;100290.40;;;22.75;100.00
56174;BME280;42058;52.308;20.924;2022-08-19T01:20:06;100296.73;;;22.74;100.00
56174;BME280;42058;52.308;20.924;2022-08-19T01:22:43;100299.56;;;22.73;100.00
56174;BME280;42058;52.308;20.924;2022-08-19T01:25:10;100305.05;;;22.71;100.00
56174;BME280;42058;52.308;20.924;2022-08-19T01:27:38;100293.59;;;22.69;100.00
56174;BME280;42058;52.308;20.924;2022-08-19T01:30:07;100298.95;;;22.69;100.00
56174;BME280;42058;52.308;20.924;2022-08-19T01:32:34;100301.87;;;22.66;100.00
56174;BME280;42058;52.308;20.924;2022-08-19T01:35:02;100305.05;;;22.65;100.00
56174;BME280;42058;52.308;20.924;2022-08-19T01:37:41;100305.51;;;22.65;100.00
56174;BME280;42058;52.308;20.924;2022-08-19T01:40:14;100304.17;;;22.65;100.00
56174;BME280;42058;52.308;20.924;2022-08-19T01:42:40;100308.80;;;22.63;100.00
56174;BME280;42058;52.308;20.924;2022-08-19T01:45:07;100300.03;;;22.61;100.00
56174;BME280;42058;52.308;20.924;2022-08-19T01:47:37;100299.53;;;22.61;100.00
56174;BME280;42058;52.308;20.924;2022-08-19T01:50:06;100292.48;;;22.60;100.00
56174;BME280;42058;52.308;20.924;2022-08-19T01:52:36;100293.55;;;22.58;100.00
56174;BME280;42058;52.308;20.924;2022-08-19T01:55:06;100294.05;;;22.57;100.00
56174;BME280;42058;52.308;20.924;2022-08-19T01:57:34;100290.14;;;22.56;100.00
56174;BME280;42058;52.308;20.924;2022-08-19T02:00:03;100286.73;;;22.54;100.00
56174;BME280;42058;52.308;20.924;2022-08-19T02:02:33;100287.73;;;22.53;100.00
56174;BME280;42058;52.308;20.924;2022-08-19T02:04:59;100284.78;;;22.50;100.00
56174;BME280;42058;52.308;20.924;2022-08-19T02:07:26;100285.89;;;22.48;100.00
56174;BME280;42058;52.308;20.924;2022-08-19T02:09:53;100289.80;;;22.43;100.00
56174;BME280;42058;52.308;20.924;2022-08-19T02:12:21;100292.22;;;22.41;100.00
56174;BME280;42058;52.308;20.924;2022-08-19T02:14:47;100288.08;;;22.37;100.00
56174;BME280;42058;52.308;20.924;2022-08-19T02:17:13;100289.53;;;22.35;100.00
56174;BME280;42058;52.308;20.924;2022-08-19T02:19:39;100287.46;;;22.33;100.00
56174;BME280;42058;52.308;20.924;2022-08-19T02:22:06;100292.44;;;22.32;100.00
56174;BME280;42058;52.308;20.924;2022-08-19T02:24:33;100288.42;;;22.32;100.00
56174;BME280;42058;52.308;20.924;2022-08-19T02:26:59;100284.05;;;22.31;100.00
56174;BME280;42058;52.308;20.924;2022-08-19T02:29:25;100284.16;;;22.30;100.00
56174;BME280;42058;52.308;20.924;2022-08-19T02:31:52;100277.58;;;22.28;100.00
56174;BME280;42058;52.308;20.924;2022-08-19T02:34:18;100275.89;;;22.27;100.00
56174;BME280;42058;52.308;20.924;2022-08-19T02:36:44;100278.77;;;22.24;100.00
56174;BME280;42058;52.308;20.924;2022-08-19T02:39:10;100269.00;;;22.23;100.00
56174;BME280;42058;52.308;20.924;2022-08-19T02:41:36;100266.44;;;22.21;100.00
56174;BME280;42058;52.308;20.924;2022-08-19T02:44:03;100276.81;;;22.20;100.00
56174;BME280;42058;52.308;20.924;2022-08-19T02:46:32;100280.33;;;22.21;100.00
56174;BME280;42058;52.308;20.924;2022-08-19T02:49:04;100284.00;;;22.20;100.00
56174;BME280;42058;52.308;20.924;2022-08-19T02:51:38;100281.94;;;22.18;100.00
56174;BME280;42058;52.308;20.924;2022-08-19T02:54:06;100286.91;;;22.17;100.00
56174;BME280;42058;52.308;20.924;2022-08-19T02:56:38;100287.52;;;22.15;100.00
56174;BME280;42058;52.308;20.924;2022-08-19T02:59:06;100283.23;;;22.12;100.00
56174;BME280;42058;52.308;20.924;2022-08-19T03:01:35;100284.34;;;22.10;100.00
56174;BME280;42058;52.308;20.924;2022-08-19T03:04:04;100278.13;;;22.09;100.00
56174;BME280;42058;52.308;20.924;2022-08-19T03:06:31;100269.83;;;22.06;100.00
56174;BME280;42058;52.308;20.924;2022-08-19T03:08:58;100275.19;;;22.06;100.00
56174;BME280;42058;52.308;20.924;2022-08-19T03:11:30;100272.16;;;22.05;100.00
56174;BME280;42058;52.308;20.924;2022-08-19T03:13:56;100273.11;;;22.04;100.00
56174;BME280;42058;52.308;20.924;2022-08-19T03:16:24;100280.42;;;22.02;100.00
56174;BME280;42058;52.308;20.924;2022-08-19T03:18:53;100279.58;;;22.02;100.00
56174;BME280;42058;52.308;20.924;2022-08-19T03:21:23;100277.85;;;22.01;100.00
56174;BME280;42058;52.308;20.924;2022-08-19T03:23:56;100271.16;;;22.01;100.00
56174;BME280;42058;52.308;20.924;2022-08-19T03:26:23;100271.05;;;22.02;100.00
56174;BME280;42058;52.308;20.924;2022-08-19T03:28:50;100268.97;;;22.00;100.00
56174;BME280;42058;52.308;20.924;2022-08-19T03:31:20;100275.29;;;21.99;100.00
56174;BME280;42058;52.308;20.924;2022-08-19T03:33:50;100276.77;;;21.98;100.00
56174;BME280;42058;52.308;20.924;2022-08-19T03:36:25;100284.55;;;21.95;100.00
56174;BME280;42058;52.308;20.924;2022-08-19T03:38:58;100283.81;;;21.93;100.00
56174;BME280;42058;52.308;20.924;2022-08-19T03:41:28;100291.61;;;21.91;100.00
56174;BME280;42058;52.308;20.924;2022-08-19T03:43:59;100293.06;;;21.89;100.00
56174;BME280;42058;52.308;20.924;2022-08-19T03:46:28;100292.67;;;21.88;100.00
56174;BME280;42058;52.308;20.924;2022-08-19T03:48:57;100287.32;;;21.88;100.00
56174;BME280;42058;52.308;20.924;2022-08-19T03:51:30;100295.36;;;21.88;100.00
56174;BME280;42058;52.308;20.924;2022-08-19T03:53:59;100299.48;;;21.86;100.00
56174;BME280;42058;52.308;20.924;2022-08-19T03:56:27;100296.80;;;21.86;100.00
56174;BME280;42058;52.308;20.924;2022-08-19T03:58:56;100303.16;;;21.85;100.00
56174;BME280;42058;52.308;20.924;2022-08-19T04:01:26;100302.30;;;21.85;100.00
56174;BME280;42058;52.308;20.924;2022-08-19T04:03:55;100299.73;;;21.83;100.00
56174;BME280;42058;52.308;20.924;2022-08-19T04:06:27;100305.94;;;21.84;100.00
56174;BME280;42058;52.308;20.924;2022-08-19T04:08:57;100302.42;;;21.83;100.00
56174;BME280;42058;52.308;20.924;2022-08-19T04:11:27;100304.00;;;21.86;100.00
56174;BME280;42058;52.308;20.924;2022-08-19T04:13:56;100304.38;;;21.87;100.00
56174;BME280;42058;52.308;20.924;2022-08-19T04:16:25;100297.69;;;21.87;100.00
56174;BME280;42058;52.308;20.924;2022-08-19T04:18:56;100298.77;;;21.90;100.00
56174;BME280;42058;52.308;20.924;2022-08-19T04:21:26;100296.47;;;21.91;100.00
56174;BME280;42058;52.308;20.924;2022-08-19T04:23:54;100293.08;;;21.95;100.00
56174;BME280;42058;52.308;20.924;2022-08-19T04:26:24;100288.45;;;21.97;100.00
56174;BME280;42058;52.308;20.924;2022-08-19T04:28:53;100285.05;;;22.00;100.00
56174;BME280;42058;52.308;20.924;2022-08-19T04:31:23;100294.66;;;22.03;100.00
56174;BME280;42058;52.308;20.924;2022-08-19T04:33:56;100295.28;;;22.06;100.00
56174;BME280;42058;52.308;20.924;2022-08-19T04:36:25;100294.56;;;22.10;100.00
56174;BME280;42058;52.308;20.924;2022-08-19T04:38:56;100300.92;;;22.15;100.00
56174;BME280;42058;52.308;20.924;2022-08-19T04:41:24;100294.34;;;22.19;100.00
56174;BME280;42058;52.308;20.924;2022-08-19T04:44:10;100304.58;;;22.25;100.00
56174;BME280;42058;52.308;20.924;2022-08-19T04:46:37;100302.08;;;22.29;100.00
56174;BME280;42058;52.308;20.924;2022-08-19T04:49:05;100297.69;;;22.34;100.00
56174;BME280;42058;52.308;20.924;2022-08-19T04:51:33;100286.62;;;22.38;100.00
56174;BME280;42058;52.308;20.924;2022-08-19T04:54:01;100287.96;;;22.44;100.00
56174;BME280;42058;52.308;20.924;2022-08-19T04:56:27;100284.67;;;22.52;100.00
56174;BME280;42058;52.308;20.924;2022-08-19T04:58:55;100286.85;;;22.58;100.00
56174;BME280;42058;52.308;20.924;2022-08-19T05:01:25;100281.37;;;22.65;100.00
56174;BME280;42058;52.308;20.924;2022-08-19T05:03:55;100288.95;;;22.71;100.00
56174;BME280;42058;52.308;20.924;2022-08-19T05:06:22;100288.45;;;22.77;100.00
56174;BME280;42058;52.308;20.924;2022-08-19T05:08:49;100289.31;;;22.83;100.00
56174;BME280;42058;52.308;20.924;2022-08-19T05:11:22;100277.35;;;22.88;100.00
56174;BME280;42058;52.308;20.924;2022-08-19T05:13:50;100284.55;;;22.93;100.00
56174;BME280;42058;52.308;20.924;2022-08-19T05:16:18;100276.61;;;22.97;100.00
56174;BME280;42058;52.308;20.924;2022-08-19T05:18:46;100279.78;;;23.02;100.00
56174;BME280;42058;52.308;20.924;2022-08-19T05:21:31;100274.17;;;23.05;100.00
56174;BME280;42058;52.308;20.924;2022-08-19T05:24:18;100287.11;;;23.11;100.00
56174;BME280;42058;52.308;20.924;2022-08-19T05:26:48;100291.24;;;23.15;100.00
56174;BME280;42058;52.308;20.924;2022-08-19T05:29:18;100294.15;;;23.18;100.00
56174;BME280;42058;52.308;20.924;2022-08-19T05:31:47;100300.24;;;23.20;100.00
56174;BME280;42058;52.308;20.924;2022-08-19T05:34:16;100299.50;;;23.23;100.00
56174;BME280;42058;52.308;20.924;2022-08-19T05:36:46;100297.30;;;23.29;100.00
56174;BME280;42058;52.308;20.924;2022-08-19T05:39:19;100292.17;;;23.37;100.00
56174;BME280;42058;52.308;20.924;2022-08-19T05:41:49;100301.77;;;23.45;100.00
56174;BME280;42058;52.308;20.924;2022-08-19T05:44:18;100309.44;;;23.55;100.00
56174;BME280;42058;52.308;20.924;2022-08-19T05:46:45;100305.98;;;23.65;100.00
56174;BME280;42058;52.308;20.924;2022-08-19T05:49:15;100318.15;;;23.74;100.00
56174;BME280;42058;52.308;20.924;2022-08-19T05:51:42;100316.56;;;23.83;100.00
56174;BME280;42058;52.308;20.924;2022-08-19T05:54:09;100312.13;;;23.93;100.00
56174;BME280;42058;52.308;20.924;2022-08-19T05:56:37;100317.94;;;24.04;100.00
56174;BME280;42058;52.308;20.924;2022-08-19T05:59:07;100310.77;;;24.14;100.00
56174;BME280;42058;52.308;20.924;2022-08-19T06:01:38;100308.17;;;24.24;100.00
56174;BME280;42058;52.308;20.924;2022-08-19T06:04:06;100297.96;;;24.33;100.00
56174;BME280;42058;52.308;20.924;2022-08-19T06:06:34;100292.50;;;24.45;100.00
56174;BME280;42058;52.308;20.924;2022-08-19T06:09:03;100293.20;;;24.52;100.00
56174;BME280;42058;52.308;20.924;2022-08-19T06:11:42;100293.61;;;24.63;100.00
56174;BME280;42058;52.308;20.924;2022-08-19T06:14:19;100286.91;;;24.73;100.00
56174;BME280;42058;52.308;20.924;2022-08-19T06:16:48;100282.16;;;24.86;100.00
56174;BME280;42058;52.308;20.924;2022-08-19T06:19:18;100276.88;;;25.00;100.00
56174;BME280;42058;52.308;20.924;2022-08-19T06:21:47;100285.57;;;25.13;100.00
56174;BME280;42058;52.308;20.924;2022-08-19T06:24:18;100290.22;;;25.27;100.00
56174;BME280;42058;52.308;20.924;2022-08-19T06:26:48;100295.21;;;25.41;100.00
56174;BME280;42058;52.308;20.924;2022-08-19T06:29:17;100304.23;;;25.56;100.00
56174;BME280;42058;52.308;20.924;2022-08-19T06:31:47;100294.99;;;25.68;100.00
56174;BME280;42058;52.308;20.924;2022-08-19T06:34:19;100295.41;;;25.83;99.88
56174;BME280;42058;52.308;20.924;2022-08-19T06:36:53;100301.92;;;25.96;99.14
56174;BME280;42058;52.308;20.924;2022-08-19T06:39:19;100297.91;;;26.09;98.24
56174;BME280;42058;52.308;20.924;2022-08-19T06:41:53;100299.65;;;26.24;97.97
56174;BME280;42058;52.308;20.924;2022-08-19T06:44:22;100299.84;;;26.37;97.63
56174;BME280;42058;52.308;20.924;2022-08-19T06:46:51;100302.72;;;26.49;97.17
56174;BME280;42058;52.308;20.924;2022-08-19T06:49:17;100304.98;;;26.63;96.67
56174;BME280;42058;52.308;20.924;2022-08-19T06:51:45;100314.94;;;26.77;95.46
56174;BME280;42058;52.308;20.924;2022-08-19T06:54:16;100307.98;;;26.88;94.04
56174;BME280;42058;52.308;20.924;2022-08-19T06:56:44;100308.14;;;27.00;94.31
56174;BME280;42058;52.308;20.924;2022-08-19T06:59:13;100296.14;;;27.13;93.44
56174;BME280;42058;52.308;20.924;2022-08-19T07:01:48;100291.36;;;27.24;92.54
56174;BME280;42058;52.308;20.924;2022-08-19T07:04:19;100294.56;;;27.38;91.33
56174;BME280;42058;52.308;20.924;2022-08-19T07:06:47;100294.52;;;27.48;91.16
56174;BME280;42058;52.308;20.924;2022-08-19T07:09:16;100302.91;;;27.58;89.81
56174;BME280;42058;52.308;20.924;2022-08-19T07:11:46;100295.22;;;27.68;88.34
56174;BME280;42058;52.308;20.924;2022-08-19T07:14:14;100300.83;;;27.74;88.95
56174;BME280;42058;52.308;20.924;2022-08-19T07:16:44;100306.30;;;27.78;88.23
56174;BME280;42058;52.308;20.924;2022-08-19T07:19:12;100313.75;;;27.80;87.21
56174;BME280;42058;52.308;20.924;2022-08-19T07:21:40;100319.84;;;27.83;86.89
56174;BME280;42058;52.308;20.924;2022-08-19T07:24:07;100315.13;;;27.85;86.86
56174;BME280;42058;52.308;20.924;2022-08-19T07:26:39;100310.98;;;27.90;86.82
56174;BME280;42058;52.308;20.924;2022-08-19T07:29:07;100311.22;;;27.97;86.66
56174;BME280;42058;52.308;20.924;2022-08-19T07:31:33;100307.41;;;28.08;86.58
56174;BME280;42058;52.308;20.924;2022-08-19T07:34:05;100290.03;;;28.14;84.03
56174;BME280;42058;52.308;20.924;2022-08-19T07:36:36;100295.81;;;28.19;83.41
56174;BME280;42058;52.308;20.924;2022-08-19T07:39:07;100293.66;;;28.27;83.26
56174;BME280;42058;52.308;20.924;2022-08-19T07:41:37;100287.13;;;28.34;83.28
56174;BME280;42058;52.308;20.924;2022-08-19T07:44:05;100277.89;;;28.45;81.60
56174;BME280;42058;52.308;20.924;2022-08-19T07:46:35;100280.17;;;28.53;82.47
56174;BME280;42058;52.308;20.924;2022-08-19T07:49:04;100284.27;;;28.66;83.42
56174;BME280;42058;52.308;20.924;2022-08-19T07:51:31;100294.02;;;28.81;82.15
56174;BME280;42058;52.308;20.924;2022-08-19T07:53:58;100302.16;;;28.93;81.53
56174;BME280;42058;52.308;20.924;2022-08-19T07:56:26;100296.28;;;29.06;81.66
56174;BME280;42058;52.308;20.924;2022-08-19T07:58:52;100299.06;;;29.14;80.66
56174;BME280;42058;52.308;20.924;2022-08-19T08:01:25;100288.59;;;29.19;79.80
56174;BME280;42058;52.308;20.924;2022-08-19T08:03:51;100298.91;;;29.28;79.34
56174;BME280;42058;52.308;20.924;2022-08-19T08:06:37;100288.95;;;29.32;78.96
56174;BME280;42058;52.308;20.924;2022-08-19T08:09:26;100283.20;;;29.40;79.32
56174;BME280;42058;52.308;20.924;2022-08-19T08:11:57;100290.33;;;29.49;78.13
56174;BME280;42058;52.308;20.924;2022-08-19T08:14:32;100288.30;;;29.55;78.04
56174;BME280;42058;52.308;20.924;2022-08-19T08:17:02;100279.16;;;29.60;76.42
56174;BME280;42058;52.308;20.924;2022-08-19T08:19:31;100282.56;;;29.66;75.87
56174;BME280;42058;52.308;20.924;2022-08-19T08:21:59;100282.56;;;29.70;76.68
56174;BME280;42058;52.308;20.924;2022-08-19T08:24:28;100282.94;;;29.80;77.95
56174;BME280;42058;52.308;20.924;2022-08-19T08:26:58;100287.34;;;29.89;77.12
56174;BME280;42058;52.308;20.924;2022-08-19T08:29:27;100292.09;;;29.99;77.26
56174;BME280;42058;52.308;20.924;2022-08-19T08:31:55;100297.16;;;30.11;77.14
56174;BME280;42058;52.308;20.924;2022-08-19T08:34:21;100292.89;;;30.24;77.42
56174;BME280;42058;52.308;20.924;2022-08-19T08:36:48;100294.42;;;30.35;76.90
56174;BME280;42058;52.308;20.924;2022-08-19T08:39:18;100293.40;;;30.49;75.60
56174;BME280;42058;52.308;20.924;2022-08-19T08:42:12;100299.83;;;30.56;73.31
56174;BME280;42058;52.308;20.924;2022-08-19T08:44:31;100297.24;;;30.62;71.57
56174;BME280;42058;52.308;20.924;2022-08-19T08:47:09;100291.30;;;30.67;70.90
56174;BME280;42058;52.308;20.924;2022-08-19T08:49:48;100287.87;;;30.73;71.66
56174;BME280;42058;52.308;20.924;2022-08-19T08:54:55;100291.56;;;30.93;71.47
56174;BME280;42058;52.308;20.924;2022-08-19T08:57:30;100298.66;;;31.02;69.71
56174;BME280;42058;52.308;20.924;2022-08-19T09:00:08;100305.73;;;31.11;70.72
56174;BME280;42058;52.308;20.924;2022-08-19T09:02:36;100306.69;;;31.22;70.16
56174;BME280;42058;52.308;20.924;2022-08-19T09:05:02;100310.88;;;31.33;70.41
56174;BME280;42058;52.308;20.924;2022-08-19T09:07:43;100300.50;;;31.37;69.46
56174;BME280;42058;52.308;20.924;2022-08-19T09:10:32;100307.56;;;31.54;68.75
56174;BME280;42058;52.308;20.924;2022-08-19T09:13:31;100308.16;;;31.65;67.53
56174;BME280;42058;52.308;20.924;2022-08-19T09:16:20;100310.44;;;31.76;68.06
56174;BME280;42058;52.308;20.924;2022-08-19T09:18:51;100316.49;;;31.86;65.85
56174;BME280;42058;52.308;20.924;2022-08-19T09:21:21;100312.72;;;31.91;64.90
56174;BME280;42058;52.308;20.924;2022-08-19T09:23:51;100302.27;;;31.99;65.76
56174;BME280;42058;52.308;20.924;2022-08-19T09:26:20;100320.42;;;32.07;65.83
56174;BME280;42058;52.308;20.924;2022-08-19T09:28:49;100308.13;;;32.11;64.41
56174;BME280;42058;52.308;20.924;2022-08-19T09:31:24;100311.15;;;32.16;64.52
56174;BME280;42058;52.308;20.924;2022-08-19T09:33:53;100315.22;;;32.20;64.78
56174;BME280;42058;52.308;20.924;2022-08-19T09:36:24;100309.72;;;32.24;63.21
56174;BME280;42058;52.308;20.924;2022-08-19T09:38:53;100304.94;;;32.26;63.79
56174;BME280;42058;52.308;20.924;2022-08-19T09:41:22;100306.95;;;32.28;63.50
56174;BME280;42058;52.308;20.924;2022-08-19T09:43:51;100315.78;;;32.30;62.58
56174;BME280;42058;52.308;20.924;2022-08-19T09:46:19;100310.69;;;32.27;62.06
56174;BME280;42058;52.308;20.924;2022-08-19T09:48:50;100314.77;;;32.27;62.93
56174;BME280;42058;52.308;20.924;2022-08-19T09:51:24;100312.53;;;32.31;63.73
56174;BME280;42058;52.308;20.924;2022-08-19T09:53:53;100324.60;;;32.32;62.95
56174;BME280;42058;52.308;20.924;2022-08-19T09:56:20;100315.08;;;32.32;62.24
56174;BME280;42058;52.308;20.924;2022-08-19T09:58:48;100318.14;;;32.33;62.51
56174;BME280;42058;52.308;20.924;2022-08-19T10:01:21;100315.73;;;32.34;61.69
56174;BME280;42058;52.308;20.924;2022-08-19T10:03:53;100314.05;;;32.33;60.98
56174;BME280;42058;52.308;20.924;2022-08-19T10:06:22;100312.03;;;32.31;59.23
56174;BME280;42058;52.308;20.924;2022-08-19T10:08:51;100304.89;;;32.30;59.08
56174;BME280;42058;52.308;20.924;2022-08-19T10:11:22;100294.70;;;32.28;57.93
56174;BME280;42058;52.308;20.924;2022-08-19T10:13:47;100298.44;;;32.27;57.28
56174;BME280;42058;52.308;20.924;2022-08-19T10:16:18;100293.70;;;32.25;57.13
56174;BME280;42058;52.308;20.924;2022-08-19T10:18:45;100291.37;;;32.22;56.83
56174;BME280;42058;52.308;20.924;2022-08-19T10:21:18;100291.86;;;32.22;56.71
56174;BME280;42058;52.308;20.924;2022-08-19T10:23:48;100290.02;;;32.18;55.56
56174;BME280;42058;52.308;20.924;2022-08-19T10:26:23;100295.34;;;32.15;55.64
56174;BME280;42058;52.308;20.924;2022-08-19T10:28:48;100297.06;;;32.12;55.02
56174;BME280;42058;52.308;20.924;2022-08-19T10:31:18;100284.02;;;32.08;55.13
56174;BME280;42058;52.308;20.924;2022-08-19T10:33:47;100280.64;;;32.06;55.32
56174;BME280;42058;52.308;20.924;2022-08-19T10:36:21;100276.89;;;32.03;55.72
56174;BME280;42058;52.308;20.924;2022-08-19T10:38:46;100280.13;;;32.02;56.46
56174;BME280;42058;52.308;20.924;2022-08-19T10:41:20;100279.79;;;32.01;56.01
56174;BME280;42058;52.308;20.924;2022-08-19T10:43:51;100276.55;;;32.02;55.86
56174;BME280;42058;52.308;20.924;2022-08-19T10:46:25;100278.42;;;32.01;56.14
56174;BME280;42058;52.308;20.924;2022-08-19T10:48:53;100276.55;;;32.02;55.29
56174;BME280;42058;52.308;20.924;2022-08-19T10:51:21;100293.92;;;32.00;55.94
56174;BME280;42058;52.308;20.924;2022-08-19T10:54:06;100287.64;;;32.00;55.04
56174;BME280;42058;52.308;20.924;2022-08-19T10:56:33;100283.21;;;31.99;55.11
56174;BME280;42058;52.308;20.924;2022-08-19T10:59:23;100288.48;;;32.00;55.06
56174;BME280;42058;52.308;20.924;2022-08-19T11:01:58;100273.55;;;31.96;54.17
56174;BME280;42058;52.308;20.924;2022-08-19T11:04:25;100276.94;;;31.98;55.17
56174;BME280;42058;52.308;20.924;2022-08-19T11:06:52;100273.51;;;32.00;55.27
56174;BME280;42058;52.308;20.924;2022-08-19T11:09:21;100270.09;;;32.03;54.39
56174;BME280;42058;52.308;20.924;2022-08-19T11:11:55;100273.82;;;32.02;54.44
56174;BME280;42058;52.308;20.924;2022-08-19T11:14:23;100269.25;;;32.02;54.00
56174;BME280;42058;52.308;20.924;2022-08-19T11:16:51;100262.44;;;32.02;53.81
56174;BME280;42058;52.308;20.924;2022-08-19T11:19:19;100262.30;;;32.04;53.64
56174;BME280;42058;52.308;20.924;2022-08-19T11:21:48;100247.98;;;32.06;53.99
56174;BME280;42058;52.308;20.924;2022-08-19T11:24:20;100247.98;;;32.06;53.03
56174;BME280;42058;52.308;20.924;2022-08-19T11:26:48;100248.64;;;32.08;52.93
56174;BME280;42058;52.308;20.924;2022-08-19T11:29:19;100250.31;;;32.09;52.69
56174;BME280;42058;52.308;20.924;2022-08-19T11:31:48;100252.33;;;32.11;52.55
56174;BME280;42058;52.308;20.924;2022-08-19T11:34:19;100244.50;;;32.12;53.56
56174;BME280;42058;52.308;20.924;2022-08-19T11:36:47;100240.55;;;32.14;53.13
56174;BME280;42058;52.308;20.924;2022-08-19T11:39:18;100234.09;;;32.15;53.21
56174;BME280;42058;52.308;20.924;2022-08-19T11:41:45;100238.52;;;32.16;52.33
56174;BME280;42058;52.308;20.924;2022-08-19T11:44:11;100229.48;;;32.16;52.70
56174;BME280;42058;52.308;20.924;2022-08-19T11:46:41;100229.30;;;32.17;53.21
56174;BME280;42058;52.308;20.924;2022-08-19T11:49:10;100219.94;;;32.20;52.79
56174;BME280;42058;52.308;20.924;2022-08-19T11:51:36;100221.61;;;32.21;52.44
56174;BME280;42058;52.308;20.924;2022-08-19T11:54:04;100229.06;;;32.23;52.96
56174;BME280;42058;52.308;20.924;2022-08-19T11:56:32;100217.16;;;32.24;52.48
56174;BME280;42058;52.308;20.924;2022-08-19T11:59:00;100209.95;;;32.27;52.42
56174;BME280;42058;52.308;20.924;2022-08-19T12:01:27;100203.48;;;32.28;52.06
56174;BME280;42058;52.308;20.924;2022-08-19T12:03:54;100202.13;;;32.28;51.57
56174;BME280;42058;52.308;20.924;2022-08-19T12:06:27;100203.62;;;32.31;51.71
56174;BME280;42058;52.308;20.924;2022-08-19T12:08:55;100194.89;;;32.35;52.02
56174;BME280;42058;52.308;20.924;2022-08-19T12:11:22;100201.46;;;32.41;51.91
56174;BME280;42058;52.308;20.924;2022-08-19T12:13:49;100193.05;;;32.47;51.87
56174;BME280;42058;52.308;20.924;2022-08-19T12:16:19;100192.31;;;32.53;51.85
56174;BME280;42058;52.308;20.924;2022-08-19T12:18:46;100187.48;;;32.59;51.37
56174;BME280;42058;52.308;20.924;2022-08-19T12:21:14;100196.58;;;32.66;51.47
56174;BME280;42058;52.308;20.924;2022-08-19T12:23:42;100191.01;;;32.74;51.66
56174;BME280;42058;52.308;20.924;2022-08-19T12:26:11;100189.20;;;32.82;51.11
56174;BME280;42058;52.308;20.924;2022-08-19T12:28:37;100184.03;;;32.87;51.01
56174;BME280;42058;52.308;20.924;2022-08-19T12:31:04;100181.77;;;32.90;50.27
56174;BME280;42058;52.308;20.924;2022-08-19T12:33:31;100177.23;;;32.98;50.57
56174;BME280;42058;52.308;20.924;2022-08-19T12:36:03;100168.91;;;33.06;49.74
56174;BME280;42058;52.308;20.924;2022-08-19T12:38:32;100173.95;;;33.13;50.06
56174;BME280;42058;52.308;20.924;2022-08-19T12:41:00;100161.56;;;33.21;50.67
56174;BME280;42058;52.308;20.924;2022-08-19T12:43:28;100160.58;;;33.29;49.84
56174;BME280;42058;52.308;20.924;2022-08-19T12:45:55;100156.36;;;33.37;49.67
56174;BME280;42058;52.308;20.924;2022-08-19T12:48:21;100164.39;;;33.45;49.61
56174;BME280;42058;52.308;20.924;2022-08-19T12:50:48;100158.80;;;33.54;49.31